sensor_id;sensor_type;location;lat;lon;timestamp;temperature;humidity
23271;DHT22;11804;51.118;17.058;2023-10-08T00:02:10;12.20;99.90
23271;DHT22;11804;51.118;17.058;2023-10-08T00:04:40;12.30;99.90
23271;DHT22;11804;51.118;17.058;2023-10-08T00:07:09;12.40;99.90
23271;DHT22;11804;51.118;17.058;2023-10-08T00:09:37;12.50;99.90
23271;DHT22;11804;51.118;17.058;2023-10-08T00:12:05;12.50;99.90
23271;DHT22;11804;51.118;17.058;2023-10-08T00:14:35;12.50;99.90
23271;DHT22;11804;51.118;17.058;2023-10-08T00:17:04;12.40;99.90
23271;DHT22;11804;51.118;17.058;2023-10-08T00:19:34;12.40;99.90
23271;DHT22;11804;51.118;17.058;2023-10-08T00:22:03;12.20;99.90
23271;DHT22;11804;51.118;17.058;2023-10-08T00:24:33;12.10;99.90
23271;DHT22;11804;51.118;17.058;2023-10-08T00:27:00;12.10;99.90
23271;DHT22;11804;51.118;17.058;2023-10-08T00:29:29;12.20;99.90
23271;DHT22;11804;51.118;17.058;2023-10-08T00:31:58;12.30;99.90
23271;DHT22;11804;51.118;17.058;2023-10-08T00:34:26;12.30;99.90
23271;DHT22;11804;51.118;17.058;2023-10-08T00:36:54;12.30;99.90
23271;DHT22;11804;51.118;17.058;2023-10-08T00:39:22;12.30;99.90
23271;DHT22;11804;51.118;17.058;2023-10-08T00:41:51;12.30;99.90
23271;DHT22;11804;51.118;17.058;2023-10-08T00:44:20;12.30;99.90
23271;DHT22;11804;51.118;17.058;2023-10-08T00:47:00;12.40;99.90
23271;DHT22;11804;51.118;17.058;2023-10-08T00:49:30;12.40;99.90
23271;DHT22;11804;51.118;17.058;2023-10-08T00:52:11;12.40;99.90
23271;DHT22;11804;51.118;17.058;2023-10-08T00:54:44;12.30;99.90
23271;DHT22;11804;51.118;17.058;2023-10-08T00:57:23;12.40;99.90
23271;DHT22;11804;51.118;17.058;2023-10-08T00:59:51;12.40;99.90
23271;DHT22;11804;51.118;17.058;2023-10-08T01:02:26;12.40;99.90
23271;DHT22;11804;51.118;17.058;2023-10-08T01:04:55;12.40;99.90
23271;DHT22;11804;51.118;17.058;2023-10-08T01:07:24;12.40;99.90
23271;DHT22;11804;51.118;17.058;2023-10-08T01:09:53;12.40;99.90
23271;DHT22;11804;51.118;17.058;2023-10-08T01:12:23;12.40;99.90
23271;DHT22;11804;51.118;17.058;2023-10-08T01:15:01;12.30;99.90
23271;DHT22;11804;51.118;17.058;2023-10-08T01:17:30;12.30;99.90
23271;DHT22;11804;51.118;17.058;2023-10-08T01:19:59;12.40;99.90
23271;DHT22;11804;51.118;17.058;2023-10-08T01:22:34;12.30;99.90
23271;DHT22;11804;51.118;17.058;2023-10-08T01:25:04;12.30;99.90
23271;DHT22;11804;51.118;17.058;2023-10-08T01:27:32;12.20;99.90
23271;DHT22;11804;51.118;17.058;2023-10-08T01:30:05;12.10;99.90
23271;DHT22;11804;51.118;17.058;2023-10-08T01:32:38;12.10;99.90
23271;DHT22;11804;51.118;17.058;2023-10-08T01:35:08;12.00;99.90
23271;DHT22;11804;51.118;17.058;2023-10-08T01:37:37;12.00;99.90
23271;DHT22;11804;51.118;17.058;2023-10-08T01:40:08;12.10;99.90
23271;DHT22;11804;51.118;17.058;2023-10-08T01:42:37;12.00;99.90
23271;DHT22;11804;51.118;17.058;2023-10-08T01:45:07;11.90;99.90
23271;DHT22;11804;51.118;17.058;2023-10-08T01:47:36;11.80;99.90
23271;DHT22;11804;51.118;17.058;2023-10-08T01:50:05;11.70;99.90
23271;DHT22;11804;51.118;17.058;2023-10-08T01:52:34;11.60;99.90
23271;DHT22;11804;51.118;17.058;2023-10-08T01:55:02;11.60;99.90
23271;DHT22;11804;51.118;17.058;2023-10-08T01:57:30;11.50;99.90
23271;DHT22;11804;51.118;17.058;2023-10-08T01:59:59;11.50;99.90
23271;DHT22;11804;51.118;17.058;2023-10-08T02:02:27;11.50;99.90
23271;DHT22;11804;51.118;17.058;2023-10-08T02:04:55;11.50;99.90
23271;DHT22;11804;51.118;17.058;2023-10-08T02:07:23;11.50;99.90
23271;DHT22;11804;51.118;17.058;2023-10-08T02:09:51;11.60;99.90
23271;DHT22;11804;51.118;17.058;2023-10-08T02:12:19;11.60;99.90
23271;DHT22;11804;51.118;17.058;2023-10-08T02:14:48;11.60;99.90
23271;DHT22;11804;51.118;17.058;2023-10-08T02:17:16;11.50;99.90
23271;DHT22;11804;51.118;17.058;2023-10-08T02:19:44;11.50;99.90
23271;DHT22;11804;51.118;17.058;2023-10-08T02:22:12;11.50;99.90
23271;DHT22;11804;51.118;17.058;2023-10-08T02:24:39;11.50;99.90
23271;DHT22;11804;51.118;17.058;2023-10-08T02:27:11;11.50;99.90
23271;DHT22;11804;51.118;17.058;2023-10-08T02:29:40;11.50;99.90
23271;DHT22;11804;51.118;17.058;2023-10-08T02:32:09;11.50;99.90
23271;DHT22;11804;51.118;17.058;2023-10-08T02:34:36;11.50;99.90
23271;DHT22;11804;51.118;17.058;2023-10-08T02:37:04;11.50;99.90
23271;DHT22;11804;51.118;17.058;2023-10-08T02:39:31;11.50;99.90
23271;DHT22;11804;51.118;17.058;2023-10-08T02:42:01;11.40;99.90
23271;DHT22;11804;51.118;17.058;2023-10-08T02:44:30;11.50;99.90
23271;DHT22;11804;51.118;17.058;2023-10-08T02:46:59;11.40;99.90
23271;DHT22;11804;51.118;17.058;2023-10-08T02:49:27;11.50;99.90
23271;DHT22;11804;51.118;17.058;2023-10-08T02:51:56;11.40;99.90
23271;DHT22;11804;51.118;17.058;2023-10-08T02:54:25;11.30;99.90
23271;DHT22;11804;51.118;17.058;2023-10-08T02:56:59;11.30;99.90
23271;DHT22;11804;51.118;17.058;2023-10-08T02:59:31;11.20;99.90
23271;DHT22;11804;51.118;17.058;2023-10-08T03:02:14;11.30;99.90
23271;DHT22;11804;51.118;17.058;2023-10-08T03:04:46;11.30;99.90
23271;DHT22;11804;51.118;17.058;2023-10-08T03:07:16;11.20;99.90
23271;DHT22;11804;51.118;17.058;2023-10-08T03:10:38;11.20;99.90
23271;DHT22;11804;51.118;17.058;2023-10-08T03:12:53;11.30;99.90
23271;DHT22;11804;51.118;17.058;2023-10-08T03:15:22;11.30;99.90
23271;DHT22;11804;51.118;17.058;2023-10-08T03:18:01;11.40;99.90
23271;DHT22;11804;51.118;17.058;2023-10-08T03:20:31;11.40;99.90
23271;DHT22;11804;51.118;17.058;2023-10-08T03:23:13;11.30;99.90
23271;DHT22;11804;51.118;17.058;2023-10-08T03:25:51;11.30;99.90
23271;DHT22;11804;51.118;17.058;2023-10-08T03:28:21;11.30;99.90
23271;DHT22;11804;51.118;17.058;2023-10-08T03:30:51;11.40;99.90
23271;DHT22;11804;51.118;17.058;2023-10-08T03:33:21;11.30;99.90
23271;DHT22;11804;51.118;17.058;2023-10-08T03:35:52;11.30;99.90
23271;DHT22;11804;51.118;17.058;2023-10-08T03:38:22;11.30;99.90
23271;DHT22;11804;51.118;17.058;2023-10-08T03:40:51;11.30;99.90
23271;DHT22;11804;51.118;17.058;2023-10-08T03:43:20;11.30;99.90
23271;DHT22;11804;51.118;17.058;2023-10-08T03:45:51;11.30;99.90
23271;DHT22;11804;51.118;17.058;2023-10-08T03:48:21;11.30;99.90
23271;DHT22;11804;51.118;17.058;2023-10-08T03:50:49;11.20;99.90
23271;DHT22;11804;51.118;17.058;2023-10-08T03:53:18;11.20;99.90
23271;DHT22;11804;51.118;17.058;2023-10-08T03:55:48;11.30;99.90
23271;DHT22;11804;51.118;17.058;2023-10-08T03:58:17;11.30;99.90
23271;DHT22;11804;51.118;17.058;2023-10-08T04:00:56;11.20;99.90
23271;DHT22;11804;51.118;17.058;2023-10-08T04:03:38;11.20;99.90
23271;DHT22;11804;51.118;17.058;2023-10-08T04:06:13;11.20;99.90
23271;DHT22;11804;51.118;17.058;2023-10-08T04:08:45;11.20;99.90
23271;DHT22;11804;51.118;17.058;2023-10-08T04:11:14;11.20;99.90
23271;DHT22;11804;51.118;17.058;2023-10-08T04:13:59;11.20;99.90
23271;DHT22;11804;51.118;17.058;2023-10-08T04:16:31;11.20;99.90
23271;DHT22;11804;51.118;17.058;2023-10-08T04:19:00;11.20;99.90
23271;DHT22;11804;51.118;17.058;2023-10-08T04:21:30;11.20;99.90
23271;DHT22;11804;51.118;17.058;2023-10-08T04:23:59;11.30;99.90
23271;DHT22;11804;51.118;17.058;2023-10-08T04:26:29;11.30;99.90
23271;DHT22;11804;51.118;17.058;2023-10-08T04:29:00;11.30;99.90
23271;DHT22;11804;51.118;17.058;2023-10-08T04:31:29;11.30;99.90
23271;DHT22;11804;51.118;17.058;2023-10-08T04:33:58;11.30;99.90
23271;DHT22;11804;51.118;17.058;2023-10-08T04:36:27;11.20;99.90
23271;DHT22;11804;51.118;17.058;2023-10-08T04:38:55;11.20;99.90
23271;DHT22;11804;51.118;17.058;2023-10-08T04:41:24;11.30;99.90
23271;DHT22;11804;51.118;17.058;2023-10-08T04:43:53;11.30;99.90
23271;DHT22;11804;51.118;17.058;2023-10-08T04:46:27;11.20;99.90
23271;DHT22;11804;51.118;17.058;2023-10-08T04:49:01;11.10;99.90
23271;DHT22;11804;51.118;17.058;2023-10-08T04:51:32;11.20;99.90
23271;DHT22;11804;51.118;17.058;2023-10-08T04:54:05;11.20;99.90
23271;DHT22;11804;51.118;17.058;2023-10-08T04:56:38;11.20;99.90
23271;DHT22;11804;51.118;17.058;2023-10-08T04:59:07;11.20;99.90
23271;DHT22;11804;51.118;17.058;2023-10-08T05:01:38;11.20;99.90
23271;DHT22;11804;51.118;17.058;2023-10-08T05:04:07;11.10;99.90
23271;DHT22;11804;51.118;17.058;2023-10-08T05:06:36;11.10;99.90
23271;DHT22;11804;51.118;17.058;2023-10-08T05:09:17;11.10;99.90
23271;DHT22;11804;51.118;17.058;2023-10-08T05:11:51;11.20;99.90
23271;DHT22;11804;51.118;17.058;2023-10-08T05:14:24;11.10;99.90
23271;DHT22;11804;51.118;17.058;2023-10-08T05:17:04;11.20;99.90
23271;DHT22;11804;51.118;17.058;2023-10-08T05:19:40;11.10;99.90
23271;DHT22;11804;51.118;17.058;2023-10-08T05:22:11;11.10;99.90
23271;DHT22;11804;51.118;17.058;2023-10-08T05:24:47;11.20;99.90
23271;DHT22;11804;51.118;17.058;2023-10-08T05:27:38;11.10;99.90
23271;DHT22;11804;51.118;17.058;2023-10-08T05:30:21;11.00;99.90
23271;DHT22;11804;51.118;17.058;2023-10-08T05:33:06;11.10;99.90
23271;DHT22;11804;51.118;17.058;2023-10-08T05:35:37;11.20;99.90
23271;DHT22;11804;51.118;17.058;2023-10-08T05:38:10;11.10;99.90
23271;DHT22;11804;51.118;17.058;2023-10-08T05:40:43;11.10;99.90
23271;DHT22;11804;51.118;17.058;2023-10-08T05:43:13;11.20;99.90
23271;DHT22;11804;51.118;17.058;2023-10-08T05:45:42;11.20;99.90
23271;DHT22;11804;51.118;17.058;2023-10-08T05:48:11;11.20;99.90
23271;DHT22;11804;51.118;17.058;2023-10-08T05:50:42;11.20;99.90
23271;DHT22;11804;51.118;17.058;2023-10-08T05:53:12;11.30;99.90
23271;DHT22;11804;51.118;17.058;2023-10-08T05:55:44;11.30;99.90
23271;DHT22;11804;51.118;17.058;2023-10-08T05:58:16;11.30;99.90
23271;DHT22;11804;51.118;17.058;2023-10-08T06:00:48;11.30;99.90
23271;DHT22;11804;51.118;17.058;2023-10-08T06:03:18;11.30;99.90
23271;DHT22;11804;51.118;17.058;2023-10-08T06:05:50;11.30;99.90
23271;DHT22;11804;51.118;17.058;2023-10-08T06:08:19;11.30;99.90
23271;DHT22;11804;51.118;17.058;2023-10-08T06:10:47;11.30;99.90
23271;DHT22;11804;51.118;17.058;2023-10-08T06:13:17;11.30;99.90
23271;DHT22;11804;51.118;17.058;2023-10-08T06:15:50;11.30;99.90
23271;DHT22;11804;51.118;17.058;2023-10-08T06:18:21;11.40;99.90
23271;DHT22;11804;51.118;17.058;2023-10-08T06:20:50;11.40;99.90
23271;DHT22;11804;51.118;17.058;2023-10-08T06:23:20;11.40;99.90
23271;DHT22;11804;51.118;17.058;2023-10-08T06:25:53;11.50;99.90
23271;DHT22;11804;51.118;17.058;2023-10-08T06:28:23;11.60;99.90
23271;DHT22;11804;51.118;17.058;2023-10-08T06:30:55;11.60;99.90
23271;DHT22;11804;51.118;17.058;2023-10-08T06:33:24;11.70;99.90
23271;DHT22;11804;51.118;17.058;2023-10-08T06:35:53;11.70;99.90
23271;DHT22;11804;51.118;17.058;2023-10-08T06:38:33;11.80;99.90
23271;DHT22;11804;51.118;17.058;2023-10-08T06:41:03;11.80;99.90
23271;DHT22;11804;51.118;17.058;2023-10-08T06:43:33;11.80;99.90
23271;DHT22;11804;51.118;17.058;2023-10-08T06:46:03;11.90;99.90
23271;DHT22;11804;51.118;17.058;2023-10-08T06:48:32;12.00;99.90
23271;DHT22;11804;51.118;17.058;2023-10-08T06:51:01;11.90;99.90
23271;DHT22;11804;51.118;17.058;2023-10-08T06:53:37;12.00;99.90
23271;DHT22;11804;51.118;17.058;2023-10-08T06:56:05;11.90;99.90
23271;DHT22;11804;51.118;17.058;2023-10-08T06:58:34;12.00;99.90
23271;DHT22;11804;51.118;17.058;2023-10-08T07:01:04;12.00;99.90
23271;DHT22;11804;51.118;17.058;2023-10-08T07:03:32;11.90;99.90
23271;DHT22;11804;51.118;17.058;2023-10-08T07:06:00;11.70;99.90
23271;DHT22;11804;51.118;17.058;2023-10-08T07:08:31;11.60;99.90
23271;DHT22;11804;51.118;17.058;2023-10-08T07:11:02;11.60;99.90
23271;DHT22;11804;51.118;17.058;2023-10-08T07:13:34;11.60;99.90
23271;DHT22;11804;51.118;17.058;2023-10-08T07:16:03;11.70;99.90
23271;DHT22;11804;51.118;17.058;2023-10-08T07:18:33;11.80;99.90
23271;DHT22;11804;51.118;17.058;2023-10-08T07:21:00;11.80;99.90
23271;DHT22;11804;51.118;17.058;2023-10-08T07:23:29;11.90;99.90
23271;DHT22;11804;51.118;17.058;2023-10-08T07:26:01;11.80;99.90
23271;DHT22;11804;51.118;17.058;2023-10-08T07:28:39;11.70;99.90
23271;DHT22;11804;51.118;17.058;2023-10-08T07:31:17;11.80;99.90
23271;DHT22;11804;51.118;17.058;2023-10-08T07:33:51;11.90;99.90
23271;DHT22;11804;51.118;17.058;2023-10-08T07:36:27;12.00;99.90
23271;DHT22;11804;51.118;17.058;2023-10-08T07:38:57;12.50;99.90
23271;DHT22;11804;51.118;17.058;2023-10-08T07:41:26;13.60;99.90
23271;DHT22;11804;51.118;17.058;2023-10-08T07:43:54;14.50;99.90
23271;DHT22;11804;51.118;17.058;2023-10-08T07:46:28;15.30;96.20
23271;DHT22;11804;51.118;17.058;2023-10-08T07:48:56;15.70;94.60
23271;DHT22;11804;51.118;17.058;2023-10-08T07:51:25;16.10;91.70
23271;DHT22;11804;51.118;17.058;2023-10-08T07:53:57;16.20;92.00
23271;DHT22;11804;51.118;17.058;2023-10-08T07:56:27;17.10;89.50
23271;DHT22;11804;51.118;17.058;2023-10-08T07:58:58;17.40;84.90
23271;DHT22;11804;51.118;17.058;2023-10-08T08:01:27;18.00;82.80
23271;DHT22;11804;51.118;17.058;2023-10-08T08:03:57;16.80;79.00
23271;DHT22;11804;51.118;17.058;2023-10-08T08:06:24;15.80;83.10
23271;DHT22;11804;51.118;17.058;2023-10-08T08:08:54;14.50;90.00
23271;DHT22;11804;51.118;17.058;2023-10-08T08:11:21;14.30;92.30
23271;DHT22;11804;51.118;17.058;2023-10-08T08:13:57;15.10;91.30
23271;DHT22;11804;51.118;17.058;2023-10-08T08:16:26;15.20;84.20
23271;DHT22;11804;51.118;17.058;2023-10-08T08:19:00;15.50;81.30
23271;DHT22;11804;51.118;17.058;2023-10-08T08:21:38;15.60;76.10
23271;DHT22;11804;51.118;17.058;2023-10-08T08:24:07;15.90;75.30
23271;DHT22;11804;51.118;17.058;2023-10-08T08:26:36;16.10;70.40
23271;DHT22;11804;51.118;17.058;2023-10-08T08:29:07;16.60;66.80
23271;DHT22;11804;51.118;17.058;2023-10-08T08:31:38;16.70;67.60
23271;DHT22;11804;51.118;17.058;2023-10-08T08:34:07;17.20;67.40
23271;DHT22;11804;51.118;17.058;2023-10-08T08:36:43;18.00;63.80
23271;DHT22;11804;51.118;17.058;2023-10-08T08:39:19;17.40;62.70
23271;DHT22;11804;51.118;17.058;2023-10-08T08:42:01;16.60;64.10
23271;DHT22;11804;51.118;17.058;2023-10-08T08:44:37;16.90;63.50
23271;DHT22;11804;51.118;17.058;2023-10-08T08:47:12;17.20;60.50
23271;DHT22;11804;51.118;17.058;2023-10-08T08:49:45;17.40;58.60
23271;DHT22;11804;51.118;17.058;2023-10-08T08:52:14;17.50;58.80
23271;DHT22;11804;51.118;17.058;2023-10-08T08:57:21;18.70;55.90
23271;DHT22;11804;51.118;17.058;2023-10-08T08:59:54;18.10;55.90
23271;DHT22;11804;51.118;17.058;2023-10-08T09:02:24;17.70;56.40
23271;DHT22;11804;51.118;17.058;2023-10-08T09:04:51;17.50;56.70
23271;DHT22;11804;51.118;17.058;2023-10-08T09:07:21;18.00;57.20
23271;DHT22;11804;51.118;17.058;2023-10-08T09:09:48;17.60;54.40
23271;DHT22;11804;51.118;17.058;2023-10-08T09:12:19;17.90;54.10
23271;DHT22;11804;51.118;17.058;2023-10-08T09:14:48;17.40;52.00
23271;DHT22;11804;51.118;17.058;2023-10-08T09:17:17;17.50;53.00
23271;DHT22;11804;51.118;17.058;2023-10-08T09:19:45;17.40;51.90
23271;DHT22;11804;51.118;17.058;2023-10-08T09:22:13;17.20;51.80
23271;DHT22;11804;51.118;17.058;2023-10-08T09:24:42;17.30;52.40
23271;DHT22;11804;51.118;17.058;2023-10-08T09:27:11;17.90;51.70
23271;DHT22;11804;51.118;17.058;2023-10-08T09:29:42;17.70;49.70
23271;DHT22;11804;51.118;17.058;2023-10-08T09:34:38;17.30;49.60
23271;DHT22;11804;51.118;17.058;2023-10-08T09:37:06;17.00;50.90
23271;DHT22;11804;51.118;17.058;2023-10-08T09:39:34;17.70;51.00
23271;DHT22;11804;51.118;17.058;2023-10-08T09:42:04;17.80;48.40
23271;DHT22;11804;51.118;17.058;2023-10-08T09:44:37;17.60;50.80
23271;DHT22;11804;51.118;17.058;2023-10-08T09:47:07;17.70;50.10
23271;DHT22;11804;51.118;17.058;2023-10-08T09:52:29;17.20;49.50
23271;DHT22;11804;51.118;17.058;2023-10-08T09:55:01;17.50;50.10
23271;DHT22;11804;51.118;17.058;2023-10-08T09:57:30;17.60;49.70
23271;DHT22;11804;51.118;17.058;2023-10-08T09:59:59;17.60;49.30
23271;DHT22;11804;51.118;17.058;2023-10-08T10:02:27;17.50;51.00
23271;DHT22;11804;51.118;17.058;2023-10-08T10:04:57;17.80;50.80
23271;DHT22;11804;51.118;17.058;2023-10-08T10:07:27;17.50;48.80
23271;DHT22;11804;51.118;17.058;2023-10-08T10:09:55;17.00;48.90
23271;DHT22;11804;51.118;17.058;2023-10-08T10:12:27;17.20;50.50
23271;DHT22;11804;51.118;17.058;2023-10-08T10:14:55;17.30;50.40
23271;DHT22;11804;51.118;17.058;2023-10-08T10:17:25;17.60;49.50
23271;DHT22;11804;51.118;17.058;2023-10-08T10:19:55;17.20;47.50
23271;DHT22;11804;51.118;17.058;2023-10-08T10:22:30;17.20;48.60
23271;DHT22;11804;51.118;17.058;2023-10-08T10:25:01;17.20;48.80
23271;DHT22;11804;51.118;17.058;2023-10-08T10:27:30;17.30;48.80
23271;DHT22;11804;51.118;17.058;2023-10-08T10:30:05;17.50;48.50
23271;DHT22;11804;51.118;17.058;2023-10-08T10:32:36;17.20;46.50
23271;DHT22;11804;51.118;17.058;2023-10-08T10:35:05;17.40;47.40
23271;DHT22;11804;51.118;17.058;2023-10-08T10:37:35;17.30;49.00
23271;DHT22;11804;51.118;17.058;2023-10-08T10:40:23;17.30;49.30
23271;DHT22;11804;51.118;17.058;2023-10-08T10:43:00;17.20;49.20
23271;DHT22;11804;51.118;17.058;2023-10-08T10:45:31;16.80;48.80
23271;DHT22;11804;51.118;17.058;2023-10-08T10:48:00;16.80;49.40
23271;DHT22;11804;51.118;17.058;2023-10-08T10:50:30;16.70;50.00
23271;DHT22;11804;51.118;17.058;2023-10-08T10:52:58;16.60;50.70
23271;DHT22;11804;51.118;17.058;2023-10-08T10:55:28;16.20;50.00
23271;DHT22;11804;51.118;17.058;2023-10-08T10:57:58;15.70;49.30
23271;DHT22;11804;51.118;17.058;2023-10-08T11:00:27;15.50;50.90
23271;DHT22;11804;51.118;17.058;2023-10-08T11:03:03;15.50;51.00
23271;DHT22;11804;51.118;17.058;2023-10-08T11:05:34;15.40;50.40
23271;DHT22;11804;51.118;17.058;2023-10-08T11:08:06;15.40;50.40
23271;DHT22;11804;51.118;17.058;2023-10-08T11:10:37;15.30;50.70
23271;DHT22;11804;51.118;17.058;2023-10-08T11:13:07;15.20;51.30
23271;DHT22;11804;51.118;17.058;2023-10-08T11:15:46;15.30;52.80
23271;DHT22;11804;51.118;17.058;2023-10-08T11:18:23;15.00;51.00
23271;DHT22;11804;51.118;17.058;2023-10-08T11:20:51;15.00;52.30
23271;DHT22;11804;51.118;17.058;2023-10-08T11:23:38;15.00;51.00
23271;DHT22;11804;51.118;17.058;2023-10-08T11:26:07;14.90;50.60
23271;DHT22;11804;51.118;17.058;2023-10-08T11:28:37;15.00;50.70
23271;DHT22;11804;51.118;17.058;2023-10-08T11:31:14;14.80;50.20
23271;DHT22;11804;51.118;17.058;2023-10-08T11:33:45;14.90;51.50
23271;DHT22;11804;51.118;17.058;2023-10-08T11:36:23;14.80;50.50
23271;DHT22;11804;51.118;17.058;2023-10-08T11:39:09;14.80;50.10
23271;DHT22;11804;51.118;17.058;2023-10-08T11:41:30;14.80;49.80
23271;DHT22;11804;51.118;17.058;2023-10-08T11:43:59;14.80;49.50
23271;DHT22;11804;51.118;17.058;2023-10-08T11:46:29;14.50;48.20
23271;DHT22;11804;51.118;17.058;2023-10-08T11:49:07;14.60;49.60
23271;DHT22;11804;51.118;17.058;2023-10-08T11:51:36;14.70;49.60
23271;DHT22;11804;51.118;17.058;2023-10-08T11:54:06;14.80;49.80
23271;DHT22;11804;51.118;17.058;2023-10-08T11:56:35;14.80;50.50
23271;DHT22;11804;51.118;17.058;2023-10-08T11:59:05;14.80;51.30
23271;DHT22;11804;51.118;17.058;2023-10-08T12:01:38;14.70;51.90
23271;DHT22;11804;51.118;17.058;2023-10-08T12:04:10;14.80;52.20
23271;DHT22;11804;51.118;17.058;2023-10-08T12:06:45;15.00;52.20
23271;DHT22;11804;51.118;17.058;2023-10-08T12:09:15;14.80;51.40
23271;DHT22;11804;51.118;17.058;2023-10-08T12:11:43;14.70;50.90
23271;DHT22;11804;51.118;17.058;2023-10-08T12:14:10;14.60;51.20
23271;DHT22;11804;51.118;17.058;2023-10-08T12:16:38;14.40;50.70
23271;DHT22;11804;51.118;17.058;2023-10-08T12:19:08;14.40;50.60
23271;DHT22;11804;51.118;17.058;2023-10-08T12:21:45;14.50;50.70
23271;DHT22;11804;51.118;17.058;2023-10-08T12:24:15;14.50;50.70
23271;DHT22;11804;51.118;17.058;2023-10-08T12:26:43;14.40;50.60
23271;DHT22;11804;51.118;17.058;2023-10-08T12:29:16;14.50;50.90
23271;DHT22;11804;51.118;17.058;2023-10-08T12:31:51;14.40;51.00
23271;DHT22;11804;51.118;17.058;2023-10-08T12:34:20;14.40;51.90
23271;DHT22;11804;51.118;17.058;2023-10-08T12:36:49;14.20;51.50
23271;DHT22;11804;51.118;17.058;2023-10-08T12:39:17;14.20;51.80
23271;DHT22;11804;51.118;17.058;2023-10-08T12:41:45;14.40;51.90
23271;DHT22;11804;51.118;17.058;2023-10-08T12:44:12;14.40;51.10
23271;DHT22;11804;51.118;17.058;2023-10-08T12:46:42;14.40;51.10
23271;DHT22;11804;51.118;17.058;2023-10-08T12:49:10;14.40;51.30
23271;DHT22;11804;51.118;17.058;2023-10-08T12:51:38;14.40;51.30
23271;DHT22;11804;51.118;17.058;2023-10-08T12:54:08;14.40;52.00
23271;DHT22;11804;51.118;17.058;2023-10-08T12:56:37;14.40;49.40
23271;DHT22;11804;51.118;17.058;2023-10-08T12:59:15;14.40;49.10
23271;DHT22;11804;51.118;17.058;2023-10-08T13:01:50;14.40;49.50
23271;DHT22;11804;51.118;17.058;2023-10-08T13:04:20;14.30;49.60
23271;DHT22;11804;51.118;17.058;2023-10-08T13:06:56;14.40;50.10
23271;DHT22;11804;51.118;17.058;2023-10-08T13:09:26;14.40;50.40
23271;DHT22;11804;51.118;17.058;2023-10-08T13:11:53;14.60;50.40
23271;DHT22;11804;51.118;17.058;2023-10-08T13:14:21;14.50;50.00
23271;DHT22;11804;51.118;17.058;2023-10-08T13:16:49;14.40;49.40
23271;DHT22;11804;51.118;17.058;2023-10-08T13:19:19;14.40;49.70
23271;DHT22;11804;51.118;17.058;2023-10-08T13:21:47;14.40;49.60
23271;DHT22;11804;51.118;17.058;2023-10-08T13:24:16;14.20;50.40
23271;DHT22;11804;51.118;17.058;2023-10-08T13:26:45;14.10;50.80
23271;DHT22;11804;51.118;17.058;2023-10-08T13:29:15;14.20;51.30
23271;DHT22;11804;51.118;17.058;2023-10-08T13:31:44;14.30;51.70
23271;DHT22;11804;51.118;17.058;2023-10-08T13:34:13;14.20;51.10
23271;DHT22;11804;51.118;17.058;2023-10-08T13:36:42;14.30;51.60
23271;DHT22;11804;51.118;17.058;2023-10-08T13:39:11;14.40;51.70
23271;DHT22;11804;51.118;17.058;2023-10-08T13:41:40;14.20;51.70
23271;DHT22;11804;51.118;17.058;2023-10-08T13:44:08;14.30;51.60
23271;DHT22;11804;51.118;17.058;2023-10-08T13:46:35;14.30;51.40
23271;DHT22;11804;51.118;17.058;2023-10-08T13:49:05;14.30;51.80
23271;DHT22;11804;51.118;17.058;2023-10-08T13:51:33;14.30;51.60
23271;DHT22;11804;51.118;17.058;2023-10-08T13:54:02;14.30;52.00
23271;DHT22;11804;51.118;17.058;2023-10-08T13:56:33;14.20;52.20
23271;DHT22;11804;51.118;17.058;2023-10-08T13:59:03;14.20;52.20
23271;DHT22;11804;51.118;17.058;2023-10-08T14:01:33;14.20;51.80
23271;DHT22;11804;51.118;17.058;2023-10-08T14:04:02;14.30;51.40
23271;DHT22;11804;51.118;17.058;2023-10-08T14:06:37;14.30;51.60
23271;DHT22;11804;51.118;17.058;2023-10-08T14:09:07;14.20;51.20
23271;DHT22;11804;51.118;17.058;2023-10-08T14:11:37;14.10;51.30
23271;DHT22;11804;51.118;17.058;2023-10-08T14:14:05;14.00;52.20
23271;DHT22;11804;51.118;17.058;2023-10-08T14:16:40;14.00;52.50
23271;DHT22;11804;51.118;17.058;2023-10-08T14:19:10;14.00;52.80
23271;DHT22;11804;51.118;17.058;2023-10-08T14:21:42;14.20;53.30
23271;DHT22;11804;51.118;17.058;2023-10-08T14:24:13;14.30;52.60
23271;DHT22;11804;51.118;17.058;2023-10-08T14:26:42;14.30;51.70
23271;DHT22;11804;51.118;17.058;2023-10-08T14:29:10;14.40;51.60
23271;DHT22;11804;51.118;17.058;2023-10-08T14:31:39;14.40;51.40
23271;DHT22;11804;51.118;17.058;2023-10-08T14:34:08;14.20;51.60
23271;DHT22;11804;51.118;17.058;2023-10-08T14:36:48;14.10;52.10
23271;DHT22;11804;51.118;17.058;2023-10-08T14:39:35;14.00;52.20
23271;DHT22;11804;51.118;17.058;2023-10-08T14:42:20;13.90;52.40
23271;DHT22;11804;51.118;17.058;2023-10-08T14:45:06;13.80;52.60
23271;DHT22;11804;51.118;17.058;2023-10-08T14:47:36;13.90;52.90
23271;DHT22;11804;51.118;17.058;2023-10-08T14:50:06;14.40;52.90
23271;DHT22;11804;51.118;17.058;2023-10-08T14:52:35;14.90;52.10
23271;DHT22;11804;51.118;17.058;2023-10-08T14:55:03;14.70;51.40
23271;DHT22;11804;51.118;17.058;2023-10-08T14:57:31;14.40;51.70
23271;DHT22;11804;51.118;17.058;2023-10-08T14:59:59;14.20;51.50
23271;DHT22;11804;51.118;17.058;2023-10-08T15:02:27;14.30;52.10
23271;DHT22;11804;51.118;17.058;2023-10-08T15:04:57;14.20;52.20
23271;DHT22;11804;51.118;17.058;2023-10-08T15:07:24;14.00;52.40
23271;DHT22;11804;51.118;17.058;2023-10-08T15:09:54;13.90;52.90
23271;DHT22;11804;51.118;17.058;2023-10-08T15:12:25;13.80;53.10
23271;DHT22;11804;51.118;17.058;2023-10-08T15:14:53;13.80;53.50
23271;DHT22;11804;51.118;17.058;2023-10-08T15:17:21;13.80;53.70
23271;DHT22;11804;51.118;17.058;2023-10-08T15:19:48;13.80;53.90
23271;DHT22;11804;51.118;17.058;2023-10-08T15:22:17;13.70;53.30
23271;DHT22;11804;51.118;17.058;2023-10-08T15:24:46;13.60;53.20
23271;DHT22;11804;51.118;17.058;2023-10-08T15:27:13;13.60;53.40
23271;DHT22;11804;51.118;17.058;2023-10-08T15:29:42;13.50;53.70
23271;DHT22;11804;51.118;17.058;2023-10-08T15:32:10;13.50;53.80
23271;DHT22;11804;51.118;17.058;2023-10-08T15:34:37;13.50;53.90
23271;DHT22;11804;51.118;17.058;2023-10-08T15:37:05;13.50;54.30
23271;DHT22;11804;51.118;17.058;2023-10-08T15:39:33;13.50;54.70
23271;DHT22;11804;51.118;17.058;2023-10-08T15:42:01;13.50;55.00
23271;DHT22;11804;51.118;17.058;2023-10-08T15:44:28;13.40;55.10
23271;DHT22;11804;51.118;17.058;2023-10-08T15:46:56;13.30;55.20